sensor_id;sensor_type;location;lat;lon;timestamp;temperature;humidity
5023;DHT22;2530;47.990;7.866;2022-10-16T00:01:55;14.90;99.90
5023;DHT22;2530;47.990;7.866;2022-10-16T00:04:21;14.90;99.90
5023;DHT22;2530;47.990;7.866;2022-10-16T00:06:46;14.90;99.90
5023;DHT22;2530;47.990;7.866;2022-10-16T00:09:12;14.90;99.90
5023;DHT22;2530;47.990;7.866;2022-10-16T00:11:39;14.90;99.90
5023;DHT22;2530;47.990;7.866;2022-10-16T00:14:09;14.90;99.90
5023;DHT22;2530;47.990;7.866;2022-10-16T00:16:35;14.90;99.90
5023;DHT22;2530;47.990;7.866;2022-10-16T00:19:01;14.90;99.90
5023;DHT22;2530;47.990;7.866;2022-10-16T00:21:29;14.90;99.90
5023;DHT22;2530;47.990;7.866;2022-10-16T00:23:59;14.90;99.90
5023;DHT22;2530;47.990;7.866;2022-10-16T00:26:25;14.90;99.90
5023;DHT22;2530;47.990;7.866;2022-10-16T00:28:51;14.80;99.90
5023;DHT22;2530;47.990;7.866;2022-10-16T00:31:19;14.80;99.90
5023;DHT22;2530;47.990;7.866;2022-10-16T00:33:45;14.80;99.90
5023;DHT22;2530;47.990;7.866;2022-10-16T00:36:14;14.80;99.90
5023;DHT22;2530;47.990;7.866;2022-10-16T00:38:40;14.90;99.90
5023;DHT22;2530;47.990;7.866;2022-10-16T00:41:07;14.90;99.90
5023;DHT22;2530;47.990;7.866;2022-10-16T00:46:37;14.80;99.90
5023;DHT22;2530;47.990;7.866;2022-10-16T00:49:17;14.80;99.90
5023;DHT22;2530;47.990;7.866;2022-10-16T00:51:50;14.80;99.90
5023;DHT22;2530;47.990;7.866;2022-10-16T00:54:27;14.80;99.90
5023;DHT22;2530;47.990;7.866;2022-10-16T00:56:55;14.80;99.90
5023;DHT22;2530;47.990;7.866;2022-10-16T00:59:48;14.90;99.90
5023;DHT22;2530;47.990;7.866;2022-10-16T01:02:15;14.90;99.90
5023;DHT22;2530;47.990;7.866;2022-10-16T01:04:47;14.90;99.90
5023;DHT22;2530;47.990;7.866;2022-10-16T01:10:18;14.90;99.90
5023;DHT22;2530;47.990;7.866;2022-10-16T01:20:45;14.90;99.90
5023;DHT22;2530;47.990;7.866;2022-10-16T01:31:46;14.80;99.90
5023;DHT22;2530;47.990;7.866;2022-10-16T01:34:32;14.80;99.90
5023;DHT22;2530;47.990;7.866;2022-10-16T01:37:13;14.70;99.90
5023;DHT22;2530;47.990;7.866;2022-10-16T01:39:42;14.70;99.90
5023;DHT22;2530;47.990;7.866;2022-10-16T01:42:35;14.60;99.90
5023;DHT22;2530;47.990;7.866;2022-10-16T01:45:05;14.60;99.90
5023;DHT22;2530;47.990;7.866;2022-10-16T01:47:33;14.60;99.90
5023;DHT22;2530;47.990;7.866;2022-10-16T01:50:02;14.60;99.90
5023;DHT22;2530;47.990;7.866;2022-10-16T01:52:31;14.60;99.90
5023;DHT22;2530;47.990;7.866;2022-10-16T01:54:58;14.60;99.90
5023;DHT22;2530;47.990;7.866;2022-10-16T01:57:25;14.60;99.90
5023;DHT22;2530;47.990;7.866;2022-10-16T01:59:54;14.60;99.90
5023;DHT22;2530;47.990;7.866;2022-10-16T02:02:22;14.70;99.90
5023;DHT22;2530;47.990;7.866;2022-10-16T02:05:03;14.70;99.90
5023;DHT22;2530;47.990;7.866;2022-10-16T02:07:30;14.70;99.90
5023;DHT22;2530;47.990;7.866;2022-10-16T02:09:55;14.60;99.90
5023;DHT22;2530;47.990;7.866;2022-10-16T02:12:30;14.70;99.90
5023;DHT22;2530;47.990;7.866;2022-10-16T02:14:57;14.70;99.90
5023;DHT22;2530;47.990;7.866;2022-10-16T02:17:23;14.70;99.90
5023;DHT22;2530;47.990;7.866;2022-10-16T02:19:51;14.80;99.90
5023;DHT22;2530;47.990;7.866;2022-10-16T02:24:58;14.80;99.90
5023;DHT22;2530;47.990;7.866;2022-10-16T02:27:33;14.80;99.90
5023;DHT22;2530;47.990;7.866;2022-10-16T02:30:07;14.70;99.90
5023;DHT22;2530;47.990;7.866;2022-10-16T02:32:37;14.70;99.90
5023;DHT22;2530;47.990;7.866;2022-10-16T02:35:05;14.70;99.90
5023;DHT22;2530;47.990;7.866;2022-10-16T02:37:32;14.60;99.90
5023;DHT22;2530;47.990;7.866;2022-10-16T02:39:58;14.70;99.90
5023;DHT22;2530;47.990;7.866;2022-10-16T02:42:29;14.60;99.90
5023;DHT22;2530;47.990;7.866;2022-10-16T02:44:58;14.60;99.90
5023;DHT22;2530;47.990;7.866;2022-10-16T02:47:23;14.60;99.90
5023;DHT22;2530;47.990;7.866;2022-10-16T02:49:49;14.60;99.90
5023;DHT22;2530;47.990;7.866;2022-10-16T02:52:14;14.60;99.90
5023;DHT22;2530;47.990;7.866;2022-10-16T02:54:39;14.50;99.90
5023;DHT22;2530;47.990;7.866;2022-10-16T02:57:05;14.50;99.90
5023;DHT22;2530;47.990;7.866;2022-10-16T02:59:31;14.60;99.90
5023;DHT22;2530;47.990;7.866;2022-10-16T03:01:56;14.60;99.90
5023;DHT22;2530;47.990;7.866;2022-10-16T03:04:22;14.70;99.90
5023;DHT22;2530;47.990;7.866;2022-10-16T03:06:47;14.70;99.90
5023;DHT22;2530;47.990;7.866;2022-10-16T03:09:13;14.70;99.90
5023;DHT22;2530;47.990;7.866;2022-10-16T03:11:38;14.70;99.90
5023;DHT22;2530;47.990;7.866;2022-10-16T03:14:04;14.70;99.90
5023;DHT22;2530;47.990;7.866;2022-10-16T03:16:29;14.70;99.90
5023;DHT22;2530;47.990;7.866;2022-10-16T03:18:55;14.60;99.90
5023;DHT22;2530;47.990;7.866;2022-10-16T03:21:21;14.60;99.90
5023;DHT22;2530;47.990;7.866;2022-10-16T03:23:47;14.60;99.90
5023;DHT22;2530;47.990;7.866;2022-10-16T03:26:12;14.60;99.90
5023;DHT22;2530;47.990;7.866;2022-10-16T03:28:38;14.60;99.90
5023;DHT22;2530;47.990;7.866;2022-10-16T03:31:03;14.60;99.90
5023;DHT22;2530;47.990;7.866;2022-10-16T03:33:29;14.70;99.90
5023;DHT22;2530;47.990;7.866;2022-10-16T03:35:55;14.70;99.90
5023;DHT22;2530;47.990;7.866;2022-10-16T03:38:21;14.60;99.90
5023;DHT22;2530;47.990;7.866;2022-10-16T03:40:47;14.60;99.90
5023;DHT22;2530;47.990;7.866;2022-10-16T03:43:12;14.70;99.90
5023;DHT22;2530;47.990;7.866;2022-10-16T03:45:38;14.70;99.90
5023;DHT22;2530;47.990;7.866;2022-10-16T03:48:03;14.60;99.90
5023;DHT22;2530;47.990;7.866;2022-10-16T03:50:29;14.70;99.90
5023;DHT22;2530;47.990;7.866;2022-10-16T03:52:55;14.70;99.90
5023;DHT22;2530;47.990;7.866;2022-10-16T03:55:20;14.70;99.90
5023;DHT22;2530;47.990;7.866;2022-10-16T03:57:46;14.70;99.90
5023;DHT22;2530;47.990;7.866;2022-10-16T04:00:12;14.70;99.90
5023;DHT22;2530;47.990;7.866;2022-10-16T04:02:38;14.70;99.90
5023;DHT22;2530;47.990;7.866;2022-10-16T04:05:04;14.70;99.90
5023;DHT22;2530;47.990;7.866;2022-10-16T04:07:30;14.80;99.90
5023;DHT22;2530;47.990;7.866;2022-10-16T04:09:55;14.80;99.90
5023;DHT22;2530;47.990;7.866;2022-10-16T04:12:22;14.70;99.90
5023;DHT22;2530;47.990;7.866;2022-10-16T04:14:47;14.80;99.90
5023;DHT22;2530;47.990;7.866;2022-10-16T04:17:13;14.70;99.90
5023;DHT22;2530;47.990;7.866;2022-10-16T04:19:39;14.80;99.90
5023;DHT22;2530;47.990;7.866;2022-10-16T04:22:04;14.80;99.90
5023;DHT22;2530;47.990;7.866;2022-10-16T04:24:30;14.80;99.90
5023;DHT22;2530;47.990;7.866;2022-10-16T04:26:55;14.80;99.90
5023;DHT22;2530;47.990;7.866;2022-10-16T04:29:21;14.80;99.90
5023;DHT22;2530;47.990;7.866;2022-10-16T04:31:47;14.70;99.90
5023;DHT22;2530;47.990;7.866;2022-10-16T04:34:12;14.80;99.90
5023;DHT22;2530;47.990;7.866;2022-10-16T04:36:38;14.70;99.90
5023;DHT22;2530;47.990;7.866;2022-10-16T04:39:03;14.70;99.90
5023;DHT22;2530;47.990;7.866;2022-10-16T04:41:29;14.70;99.90
5023;DHT22;2530;47.990;7.866;2022-10-16T04:43:54;14.70;99.90
5023;DHT22;2530;47.990;7.866;2022-10-16T04:46:20;14.70;99.90
5023;DHT22;2530;47.990;7.866;2022-10-16T04:48:45;14.70;99.90
5023;DHT22;2530;47.990;7.866;2022-10-16T04:51:12;14.80;99.90
5023;DHT22;2530;47.990;7.866;2022-10-16T04:53:37;14.70;99.90
5023;DHT22;2530;47.990;7.866;2022-10-16T04:56:03;14.80;99.90
5023;DHT22;2530;47.990;7.866;2022-10-16T04:58:28;14.80;99.90
5023;DHT22;2530;47.990;7.866;2022-10-16T05:00:54;14.80;99.90
5023;DHT22;2530;47.990;7.866;2022-10-16T05:03:19;14.90;99.90
5023;DHT22;2530;47.990;7.866;2022-10-16T05:05:46;14.80;99.90
5023;DHT22;2530;47.990;7.866;2022-10-16T05:08:12;14.80;99.90
5023;DHT22;2530;47.990;7.866;2022-10-16T05:10:38;14.80;99.90
5023;DHT22;2530;47.990;7.866;2022-10-16T05:13:04;14.90;99.90
5023;DHT22;2530;47.990;7.866;2022-10-16T05:15:29;14.90;99.90
5023;DHT22;2530;47.990;7.866;2022-10-16T05:17:55;14.80;99.90
5023;DHT22;2530;47.990;7.866;2022-10-16T05:20:22;14.90;99.90
5023;DHT22;2530;47.990;7.866;2022-10-16T05:22:48;14.90;99.90
5023;DHT22;2530;47.990;7.866;2022-10-16T05:25:14;14.90;99.90
5023;DHT22;2530;47.990;7.866;2022-10-16T05:27:39;14.90;99.90
5023;DHT22;2530;47.990;7.866;2022-10-16T05:30:05;14.80;99.90
5023;DHT22;2530;47.990;7.866;2022-10-16T05:32:31;14.80;99.90
5023;DHT22;2530;47.990;7.866;2022-10-16T05:34:56;14.80;99.90
5023;DHT22;2530;47.990;7.866;2022-10-16T05:37:24;14.90;99.90
5023;DHT22;2530;47.990;7.866;2022-10-16T05:39:50;14.90;99.90
5023;DHT22;2530;47.990;7.866;2022-10-16T05:42:15;14.90;99.90
5023;DHT22;2530;47.990;7.866;2022-10-16T05:44:41;14.90;99.90
5023;DHT22;2530;47.990;7.866;2022-10-16T05:47:06;14.80;99.90
5023;DHT22;2530;47.990;7.866;2022-10-16T05:49:32;14.80;99.90
5023;DHT22;2530;47.990;7.866;2022-10-16T05:51:57;14.80;99.90
5023;DHT22;2530;47.990;7.866;2022-10-16T05:54:23;14.90;99.90
5023;DHT22;2530;47.990;7.866;2022-10-16T05:56:48;14.80;99.90
5023;DHT22;2530;47.990;7.866;2022-10-16T05:59:14;14.90;99.90
5023;DHT22;2530;47.990;7.866;2022-10-16T06:01:39;14.90;99.90
5023;DHT22;2530;47.990;7.866;2022-10-16T06:04:05;14.90;99.90
5023;DHT22;2530;47.990;7.866;2022-10-16T06:06:30;15.00;99.90
5023;DHT22;2530;47.990;7.866;2022-10-16T06:08:56;15.00;99.90
5023;DHT22;2530;47.990;7.866;2022-10-16T06:11:28;14.90;99.90
5023;DHT22;2530;47.990;7.866;2022-10-16T06:13:56;14.90;99.90
5023;DHT22;2530;47.990;7.866;2022-10-16T06:16:23;14.90;99.90
5023;DHT22;2530;47.990;7.866;2022-10-16T06:18:51;15.10;99.90
5023;DHT22;2530;47.990;7.866;2022-10-16T06:21:22;15.10;99.90
5023;DHT22;2530;47.990;7.866;2022-10-16T06:23:50;15.10;99.90
5023;DHT22;2530;47.990;7.866;2022-10-16T06:26:18;15.00;99.90
5023;DHT22;2530;47.990;7.866;2022-10-16T06:28:44;15.10;99.90
5023;DHT22;2530;47.990;7.866;2022-10-16T06:31:10;15.20;99.90
5023;DHT22;2530;47.990;7.866;2022-10-16T06:33:37;15.20;99.90
5023;DHT22;2530;47.990;7.866;2022-10-16T06:36:05;15.20;99.90
5023;DHT22;2530;47.990;7.866;2022-10-16T06:38:32;15.10;99.90
5023;DHT22;2530;47.990;7.866;2022-10-16T06:40:58;15.10;99.90
5023;DHT22;2530;47.990;7.866;2022-10-16T06:43:24;15.10;99.90
5023;DHT22;2530;47.990;7.866;2022-10-16T06:45:53;15.10;99.90
5023;DHT22;2530;47.990;7.866;2022-10-16T06:48:19;15.10;99.90
5023;DHT22;2530;47.990;7.866;2022-10-16T06:51:05;15.10;99.90
5023;DHT22;2530;47.990;7.866;2022-10-16T06:53:33;15.10;99.90
5023;DHT22;2530;47.990;7.866;2022-10-16T06:56:07;15.20;99.90
5023;DHT22;2530;47.990;7.866;2022-10-16T06:58:32;15.20;99.90
5023;DHT22;2530;47.990;7.866;2022-10-16T07:00:58;15.20;99.90
5023;DHT22;2530;47.990;7.866;2022-10-16T07:03:23;15.10;99.90
5023;DHT22;2530;47.990;7.866;2022-10-16T07:05:49;15.10;99.90
5023;DHT22;2530;47.990;7.866;2022-10-16T07:08:18;15.20;99.90
5023;DHT22;2530;47.990;7.866;2022-10-16T07:10:44;15.20;99.90
5023;DHT22;2530;47.990;7.866;2022-10-16T07:13:09;15.20;99.90
5023;DHT22;2530;47.990;7.866;2022-10-16T07:15:38;15.20;99.90
5023;DHT22;2530;47.990;7.866;2022-10-16T07:18:04;15.30;99.90
5023;DHT22;2530;47.990;7.866;2022-10-16T07:20:29;15.30;99.90
5023;DHT22;2530;47.990;7.866;2022-10-16T07:22:55;15.30;99.90
5023;DHT22;2530;47.990;7.866;2022-10-16T07:25:20;15.40;99.90
5023;DHT22;2530;47.990;7.866;2022-10-16T07:27:46;15.30;99.90
5023;DHT22;2530;47.990;7.866;2022-10-16T07:30:11;15.40;99.90
5023;DHT22;2530;47.990;7.866;2022-10-16T07:32:37;15.40;99.90
5023;DHT22;2530;47.990;7.866;2022-10-16T07:35:03;15.40;99.90
5023;DHT22;2530;47.990;7.866;2022-10-16T07:37:29;15.40;99.90
5023;DHT22;2530;47.990;7.866;2022-10-16T07:39:54;15.60;99.90
5023;DHT22;2530;47.990;7.866;2022-10-16T07:42:20;15.50;99.90
5023;DHT22;2530;47.990;7.866;2022-10-16T07:44:45;15.60;99.90
5023;DHT22;2530;47.990;7.866;2022-10-16T07:47:11;15.70;99.90
5023;DHT22;2530;47.990;7.866;2022-10-16T07:49:36;15.70;99.90
5023;DHT22;2530;47.990;7.866;2022-10-16T07:52:02;15.80;99.90
5023;DHT22;2530;47.990;7.866;2022-10-16T07:54:27;15.90;99.90
5023;DHT22;2530;47.990;7.866;2022-10-16T07:56:53;15.90;99.90
5023;DHT22;2530;47.990;7.866;2022-10-16T07:59:19;15.90;99.90
5023;DHT22;2530;47.990;7.866;2022-10-16T08:01:44;16.10;99.90
5023;DHT22;2530;47.990;7.866;2022-10-16T08:04:10;16.10;99.90
5023;DHT22;2530;47.990;7.866;2022-10-16T08:06:39;16.20;99.90
5023;DHT22;2530;47.990;7.866;2022-10-16T08:09:06;16.20;99.90
5023;DHT22;2530;47.990;7.866;2022-10-16T08:11:32;16.20;99.90
5023;DHT22;2530;47.990;7.866;2022-10-16T08:13:58;16.30;99.90
5023;DHT22;2530;47.990;7.866;2022-10-16T08:16:24;16.40;99.90
5023;DHT22;2530;47.990;7.866;2022-10-16T08:18:50;16.50;99.90
5023;DHT22;2530;47.990;7.866;2022-10-16T08:21:19;16.50;99.90
5023;DHT22;2530;47.990;7.866;2022-10-16T08:23:45;16.60;99.90
5023;DHT22;2530;47.990;7.866;2022-10-16T08:26:12;16.70;99.90
5023;DHT22;2530;47.990;7.866;2022-10-16T08:28:38;16.70;99.90
5023;DHT22;2530;47.990;7.866;2022-10-16T08:31:08;16.80;99.90
5023;DHT22;2530;47.990;7.866;2022-10-16T08:33:34;16.90;99.90
5023;DHT22;2530;47.990;7.866;2022-10-16T08:36:01;16.90;99.90
5023;DHT22;2530;47.990;7.866;2022-10-16T08:38:27;17.00;99.90
5023;DHT22;2530;47.990;7.866;2022-10-16T08:41:02;17.00;99.90
5023;DHT22;2530;47.990;7.866;2022-10-16T08:49:30;17.10;99.90
5023;DHT22;2530;47.990;7.866;2022-10-16T08:51:56;17.10;99.90
5023;DHT22;2530;47.990;7.866;2022-10-16T08:54:25;17.10;99.90
5023;DHT22;2530;47.990;7.866;2022-10-16T08:56:54;17.10;99.90
5023;DHT22;2530;47.990;7.866;2022-10-16T08:59:20;17.10;99.90
5023;DHT22;2530;47.990;7.866;2022-10-16T09:01:49;17.10;99.90
5023;DHT22;2530;47.990;7.866;2022-10-16T09:04:44;17.10;99.90
5023;DHT22;2530;47.990;7.866;2022-10-16T09:07:34;17.20;99.90
5023;DHT22;2530;47.990;7.866;2022-10-16T09:10:26;17.40;99.90
5023;DHT22;2530;47.990;7.866;2022-10-16T09:15:51;17.80;99.90
5023;DHT22;2530;47.990;7.866;2022-10-16T09:21:36;18.10;99.90
5023;DHT22;2530;47.990;7.866;2022-10-16T09:24:15;18.10;99.90
5023;DHT22;2530;47.990;7.866;2022-10-16T09:26:41;18.20;99.90
5023;DHT22;2530;47.990;7.866;2022-10-16T09:29:13;18.40;99.90
5023;DHT22;2530;47.990;7.866;2022-10-16T09:31:39;18.50;99.90
5023;DHT22;2530;47.990;7.866;2022-10-16T09:34:05;18.60;99.90
5023;DHT22;2530;47.990;7.866;2022-10-16T09:36:39;18.90;99.90
5023;DHT22;2530;47.990;7.866;2022-10-16T09:39:08;18.90;99.90
5023;DHT22;2530;47.990;7.866;2022-10-16T09:41:39;19.20;99.90
5023;DHT22;2530;47.990;7.866;2022-10-16T09:44:28;19.20;99.90
5023;DHT22;2530;47.990;7.866;2022-10-16T09:47:04;19.30;99.90
5023;DHT22;2530;47.990;7.866;2022-10-16T09:49:30;19.40;99.90
5023;DHT22;2530;47.990;7.866;2022-10-16T09:52:06;19.80;99.90
5023;DHT22;2530;47.990;7.866;2022-10-16T09:54:36;20.20;99.90
5023;DHT22;2530;47.990;7.866;2022-10-16T09:57:10;20.60;99.90
5023;DHT22;2530;47.990;7.866;2022-10-16T09:59:49;20.90;99.90
5023;DHT22;2530;47.990;7.866;2022-10-16T10:02:18;21.20;99.90
5023;DHT22;2530;47.990;7.866;2022-10-16T10:04:49;21.30;99.90
5023;DHT22;2530;47.990;7.866;2022-10-16T10:07:24;21.40;99.90
5023;DHT22;2530;47.990;7.866;2022-10-16T10:09:51;21.50;99.90
5023;DHT22;2530;47.990;7.866;2022-10-16T10:12:24;21.80;99.90
5023;DHT22;2530;47.990;7.866;2022-10-16T10:14:55;21.90;99.90
5023;DHT22;2530;47.990;7.866;2022-10-16T10:17:23;22.10;99.90
5023;DHT22;2530;47.990;7.866;2022-10-16T10:19:57;22.30;99.90
5023;DHT22;2530;47.990;7.866;2022-10-16T10:33:18;22.20;99.90
5023;DHT22;2530;47.990;7.866;2022-10-16T10:38:47;22.10;99.90
5023;DHT22;2530;47.990;7.866;2022-10-16T10:44:03;22.50;99.90
5023;DHT22;2530;47.990;7.866;2022-10-16T10:54:58;23.20;91.30
5023;DHT22;2530;47.990;7.866;2022-10-16T11:00:28;23.30;91.00
5023;DHT22;2530;47.990;7.866;2022-10-16T11:03:22;23.10;91.20
5023;DHT22;2530;47.990;7.866;2022-10-16T11:05:58;23.20;89.60
5023;DHT22;2530;47.990;7.866;2022-10-16T11:08:38;23.30;91.10
5023;DHT22;2530;47.990;7.866;2022-10-16T11:11:11;23.20;90.80
5023;DHT22;2530;47.990;7.866;2022-10-16T11:13:47;23.20;90.30
5023;DHT22;2530;47.990;7.866;2022-10-16T11:16:19;23.10;90.60
5023;DHT22;2530;47.990;7.866;2022-10-16T11:18:55;23.20;88.10
5023;DHT22;2530;47.990;7.866;2022-10-16T11:21:24;23.30;90.30
5023;DHT22;2530;47.990;7.866;2022-10-16T11:23:59;23.30;88.70
5023;DHT22;2530;47.990;7.866;2022-10-16T11:26:33;23.40;87.70
5023;DHT22;2530;47.990;7.866;2022-10-16T11:29:02;23.40;84.70
5023;DHT22;2530;47.990;7.866;2022-10-16T11:31:42;23.50;89.10
5023;DHT22;2530;47.990;7.866;2022-10-16T11:34:34;23.60;84.30
5023;DHT22;2530;47.990;7.866;2022-10-16T11:37:24;23.60;82.50
5023;DHT22;2530;47.990;7.866;2022-10-16T11:39:54;23.50;84.40
5023;DHT22;2530;47.990;7.866;2022-10-16T11:42:27;23.70;85.90
5023;DHT22;2530;47.990;7.866;2022-10-16T11:45:30;23.60;83.50
5023;DHT22;2530;47.990;7.866;2022-10-16T11:50:56;25.10;78.60
5023;DHT22;2530;47.990;7.866;2022-10-16T11:56:06;26.30;74.50
5023;DHT22;2530;47.990;7.866;2022-10-16T11:58:44;26.50;68.80
5023;DHT22;2530;47.990;7.866;2022-10-16T12:01:37;27.10;68.10
5023;DHT22;2530;47.990;7.866;2022-10-16T12:04:24;26.30;67.50
5023;DHT22;2530;47.990;7.866;2022-10-16T12:07:35;27.20;68.50
5023;DHT22;2530;47.990;7.866;2022-10-16T12:09:53;27.40;67.00
5023;DHT22;2530;47.990;7.866;2022-10-16T12:15:01;27.00;66.90
5023;DHT22;2530;47.990;7.866;2022-10-16T12:17:35;26.90;68.30
5023;DHT22;2530;47.990;7.866;2022-10-16T12:20:23;26.50;76.50
5023;DHT22;2530;47.990;7.866;2022-10-16T12:22:52;26.20;71.20
5023;DHT22;2530;47.990;7.866;2022-10-16T12:25:32;25.50;70.90
5023;DHT22;2530;47.990;7.866;2022-10-16T12:28:02;25.30;73.80
5023;DHT22;2530;47.990;7.866;2022-10-16T12:30:31;25.00;74.60
5023;DHT22;2530;47.990;7.866;2022-10-16T12:33:00;25.00;74.80
5023;DHT22;2530;47.990;7.866;2022-10-16T12:35:30;24.70;76.80
5023;DHT22;2530;47.990;7.866;2022-10-16T12:38:08;24.70;80.10
5023;DHT22;2530;47.990;7.866;2022-10-16T12:40:38;24.90;81.80
5023;DHT22;2530;47.990;7.866;2022-10-16T12:46:03;25.20;76.50
5023;DHT22;2530;47.990;7.866;2022-10-16T12:48:29;25.10;78.30
5023;DHT22;2530;47.990;7.866;2022-10-16T12:50:56;25.20;76.80
5023;DHT22;2530;47.990;7.866;2022-10-16T12:53:26;25.30;81.00
5023;DHT22;2530;47.990;7.866;2022-10-16T12:56:03;25.20;76.70
5023;DHT22;2530;47.990;7.866;2022-10-16T13:06:51;25.20;80.60
5023;DHT22;2530;47.990;7.866;2022-10-16T13:09:53;25.40;74.70
5023;DHT22;2530;47.990;7.866;2022-10-16T13:15:48;25.10;74.10
5023;DHT22;2530;47.990;7.866;2022-10-16T13:18:22;25.50;76.70
5023;DHT22;2530;47.990;7.866;2022-10-16T13:29:09;25.30;72.60
5023;DHT22;2530;47.990;7.866;2022-10-16T13:31:38;25.40;73.30
5023;DHT22;2530;47.990;7.866;2022-10-16T13:34:05;25.40;73.50
5023;DHT22;2530;47.990;7.866;2022-10-16T13:36:47;25.50;74.00
5023;DHT22;2530;47.990;7.866;2022-10-16T13:39:30;25.40;80.80
5023;DHT22;2530;47.990;7.866;2022-10-16T13:42:25;25.20;76.00
5023;DHT22;2530;47.990;7.866;2022-10-16T13:44:53;25.30;74.90
5023;DHT22;2530;47.990;7.866;2022-10-16T13:47:24;25.40;74.40
5023;DHT22;2530;47.990;7.866;2022-10-16T13:50:19;25.10;79.30
5023;DHT22;2530;47.990;7.866;2022-10-16T13:52:44;24.80;75.50
5023;DHT22;2530;47.990;7.866;2022-10-16T13:55:15;25.00;77.10
5023;DHT22;2530;47.990;7.866;2022-10-16T13:57:41;24.90;76.20
5023;DHT22;2530;47.990;7.866;2022-10-16T14:00:25;24.80;81.50
5023;DHT22;2530;47.990;7.866;2022-10-16T14:03:02;24.50;86.80
5023;DHT22;2530;47.990;7.866;2022-10-16T14:05:28;24.40;90.60
5023;DHT22;2530;47.990;7.866;2022-10-16T14:07:55;24.70;80.90
5023;DHT22;2530;47.990;7.866;2022-10-16T14:10:27;25.00;81.40
5023;DHT22;2530;47.990;7.866;2022-10-16T14:13:02;24.70;86.20
5023;DHT22;2530;47.990;7.866;2022-10-16T14:15:29;24.60;90.10
5023;DHT22;2530;47.990;7.866;2022-10-16T14:17:56;24.40;97.40
5023;DHT22;2530;47.990;7.866;2022-10-16T14:20:28;24.30;93.50
5023;DHT22;2530;47.990;7.866;2022-10-16T14:23:04;24.20;97.50
5023;DHT22;2530;47.990;7.866;2022-10-16T14:25:31;24.30;96.20
5023;DHT22;2530;47.990;7.866;2022-10-16T14:28:04;24.20;97.50
5023;DHT22;2530;47.990;7.866;2022-10-16T14:30:33;24.20;99.90
5023;DHT22;2530;47.990;7.866;2022-10-16T14:33:02;24.40;99.90
5023;DHT22;2530;47.990;7.866;2022-10-16T14:35:34;24.50;99.90
5023;DHT22;2530;47.990;7.866;2022-10-16T14:38:02;24.60;99.90
5023;DHT22;2530;47.990;7.866;2022-10-16T14:40:30;24.20;99.90
5023;DHT22;2530;47.990;7.866;2022-10-16T14:42:57;24.30;99.90
5023;DHT22;2530;47.990;7.866;2022-10-16T14:45:29;23.80;99.90
5023;DHT22;2530;47.990;7.866;2022-10-16T14:47:58;24.00;99.90
5023;DHT22;2530;47.990;7.866;2022-10-16T14:50:24;24.00;99.90
5023;DHT22;2530;47.990;7.866;2022-10-16T14:52:50;23.70;99.90
5023;DHT22;2530;47.990;7.866;2022-10-16T14:55:16;23.70;99.90
5023;DHT22;2530;47.990;7.866;2022-10-16T14:57:43;23.60;99.90
5023;DHT22;2530;47.990;7.866;2022-10-16T15:00:16;23.80;99.90
5023;DHT22;2530;47.990;7.866;2022-10-16T15:02:42;23.60;99.90
5023;DHT22;2530;47.990;7.866;2022-10-16T15:05:23;23.50;99.90
5023;DHT22;2530;47.990;7.866;2022-10-16T15:07:50;23.60;99.90
5023;DHT22;2530;47.990;7.866;2022-10-16T15:10:17;23.30;99.90
5023;DHT22;2530;47.990;7.866;2022-10-16T15:12:43;23.30;99.90
5023;DHT22;2530;47.990;7.866;2022-10-16T15:16:03;23.40;99.90
5023;DHT22;2530;47.990;7.866;2022-10-16T15:18:10;23.80;99.90
5023;DHT22;2530;47.990;7.866;2022-10-16T15:20:37;24.10;99.90
5023;DHT22;2530;47.990;7.866;2022-10-16T15:23:13;24.70;99.90
5023;DHT22;2530;47.990;7.866;2022-10-16T15:25:43;24.20;99.90
5023;DHT22;2530;47.990;7.866;2022-10-16T15:28:09;23.60;99.90
5023;DHT22;2530;47.990;7.866;2022-10-16T15:30:36;25.50;97.20
5023;DHT22;2530;47.990;7.866;2022-10-16T15:33:02;25.00;99.70
5023;DHT22;2530;47.990;7.866;2022-10-16T15:35:28;23.40;99.90
5023;DHT22;2530;47.990;7.866;2022-10-16T15:37:54;24.20;99.90
5023;DHT22;2530;47.990;7.866;2022-10-16T15:40:20;23.50;99.90
5023;DHT22;2530;47.990;7.866;2022-10-16T15:42:46;22.70;99.90
5023;DHT22;2530;47.990;7.866;2022-10-16T15:45:12;22.00;99.90
5023;DHT22;2530;47.990;7.866;2022-10-16T15:47:42;21.60;99.90
5023;DHT22;2530;47.990;7.866;2022-10-16T15:50:10;21.40;99.90
5023;DHT22;2530;47.990;7.866;2022-10-16T15:52:37;21.20;99.90
5023;DHT22;2530;47.990;7.866;2022-10-16T15:55:11;21.30;99.90
5023;DHT22;2530;47.990;7.866;2022-10-16T15:57:37;21.10;99.90
5023;DHT22;2530;47.990;7.866;2022-10-16T16:00:16;20.90;99.90
5023;DHT22;2530;47.990;7.866;2022-10-16T16:02:43;20.70;99.90
5023;DHT22;2530;47.990;7.866;2022-10-16T16:05:10;20.50;99.90
5023;DHT22;2530;47.990;7.866;2022-10-16T16:07:37;20.30;99.90
5023;DHT22;2530;47.990;7.866;2022-10-16T16:10:05;20.10;99.90
5023;DHT22;2530;47.990;7.866;2022-10-16T16:12:31;20.00;99.90
5023;DHT22;2530;47.990;7.866;2022-10-16T16:14:56;19.90;99.90
5023;DHT22;2530;47.990;7.866;2022-10-16T16:17:22;19.70;99.90
5023;DHT22;2530;47.990;7.866;2022-10-16T16:19:48;19.60;99.90
5023;DHT22;2530;47.990;7.866;2022-10-16T16:22:14;19.50;99.90
5023;DHT22;2530;47.990;7.866;2022-10-16T16:24:40;19.40;99.90
5023;DHT22;2530;47.990;7.866;2022-10-16T16:27:05;19.30;99.90
5023;DHT22;2530;47.990;7.866;2022-10-16T16:29:31;19.30;99.90
5023;DHT22;2530;47.990;7.866;2022-10-16T16:31:56;19.20;99.90
5023;DHT22;2530;47.990;7.866;2022-10-16T16:36:52;19.00;99.90
5023;DHT22;2530;47.990;7.866;2022-10-16T16:39:18;18.90;99.90
5023;DHT22;2530;47.990;7.866;2022-10-16T16:41:43;18.80;99.90
5023;DHT22;2530;47.990;7.866;2022-10-16T16:44:11;18.70;99.90
5023;DHT22;2530;47.990;7.866;2022-10-16T16:46:36;18.60;99.90
5023;DHT22;2530;47.990;7.866;2022-10-16T16:49:03;18.50;99.90
5023;DHT22;2530;47.990;7.866;2022-10-16T16:51:29;18.50;99.90
5023;DHT22;2530;47.990;7.866;2022-10-16T16:53:55;18.40;99.90
5023;DHT22;2530;47.990;7.866;2022-10-16T16:56:22;18.30;99.90
5023;DHT22;2530;47.990;7.866;2022-10-16T16:58:49;18.10;99.90
5023;DHT22;2530;47.990;7.866;2022-10-16T17:01:15;18.10;99.90
5023;DHT22;2530;47.990;7.866;2022-10-16T17:03:43;18.00;99.90
5023;DHT22;2530;47.990;7.866;2022-10-16T17:06:13;18.00;99.90
5023;DHT22;2530;47.990;7.866;2022-10-16T17:08:40;18.00;99.90
5023;DHT22;2530;47.990;7.866;2022-10-16T17:11:10;17.90;99.90
5023;DHT22;2530;47.990;7.866;2022-10-16T17:13:36;17.90;99.90
5023;DHT22;2530;47.990;7.866;2022-10-16T17:16:04;17.80;99.90
5023;DHT22;2530;47.990;7.866;2022-10-16T17:18:29;17.70;99.90
5023;DHT22;2530;47.990;7.866;2022-10-16T17:20:58;17.70;99.90
5023;DHT22;2530;47.990;7.866;2022-10-16T17:23:24;17.70;99.90
5023;DHT22;2530;47.990;7.866;2022-10-16T17:25:50;17.60;99.90
5023;DHT22;2530;47.990;7.866;2022-10-16T17:28:15;17.60;99.90
5023;DHT22;2530;47.990;7.866;2022-10-16T17:30:41;17.60;99.90
5023;DHT22;2530;47.990;7.866;2022-10-16T17:33:08;17.50;99.90
5023;DHT22;2530;47.990;7.866;2022-10-16T17:35:39;17.40;99.90
5023;DHT22;2530;47.990;7.866;2022-10-16T17:38:05;17.30;99.90
5023;DHT22;2530;47.990;7.866;2022-10-16T17:40:30;17.30;99.90
5023;DHT22;2530;47.990;7.866;2022-10-16T17:42:56;17.20;99.90
5023;DHT22;2530;47.990;7.866;2022-10-16T17:45:22;17.20;99.90
5023;DHT22;2530;47.990;7.866;2022-10-16T17:47:47;17.10;99.90
5023;DHT22;2530;47.990;7.866;2022-10-16T17:50:13;17.10;99.90
5023;DHT22;2530;47.990;7.866;2022-10-16T17:52:38;17.10;99.90
5023;DHT22;2530;47.990;7.866;2022-10-16T17:55:04;17.10;99.90